Madden, Mississippi
Current Conditions -  °F | °C
As of 8:10 AM on Saturday 20 Dec 2014 (Local Time) from KMEI Reporting Station
Overcast Overcast  
Wind Chill: 37°   Ceiling: 2300
Heat Index: 42°   Visibility: 7mi
Dew Point: 39°   Wind: 9mph
Humidity: 89%   Direction: 30°NNE
Pressure: 30.22"   Gusts: NA
Location:  32.68°N, 89.35°W
Report Text: KMEI 201410Z 03008KT 7SM SCT009 OVC023 06/04 A3022 RMK AO2 T00560039
Loading
Personal Weather Stations






























Interactive Weather Map New forecast layout! Learn more

10-Day Weather Forecast

Advertisements
Track Severe Weather on mobile